sensor_id;sensor_type;location;lat;lon;timestamp;P1;durP1;ratioP1;P2;durP2;ratioP2
51090;SDS011;37136;43.614;3.908;2022-12-07T00:00:53;26.58;;;17.17;;
51090;SDS011;37136;43.614;3.908;2022-12-07T00:03:20;28.73;;;17.52;;
51090;SDS011;37136;43.614;3.908;2022-12-07T00:05:46;27.60;;;17.80;;
51090;SDS011;37136;43.614;3.908;2022-12-07T00:08:12;31.38;;;17.83;;
51090;SDS011;37136;43.614;3.908;2022-12-07T00:10:38;26.33;;;16.83;;
51090;SDS011;37136;43.614;3.908;2022-12-07T00:13:04;29.83;;;17.25;;
51090;SDS011;37136;43.614;3.908;2022-12-07T00:15:30;31.85;;;18.08;;
51090;SDS011;37136;43.614;3.908;2022-12-07T00:17:56;28.67;;;17.65;;
51090;SDS011;37136;43.614;3.908;2022-12-07T00:20:22;27.85;;;18.65;;
51090;SDS011;37136;43.614;3.908;2022-12-07T00:22:49;33.08;;;19.23;;
51090;SDS011;37136;43.614;3.908;2022-12-07T00:25:16;28.27;;;17.10;;
51090;SDS011;37136;43.614;3.908;2022-12-07T00:27:42;31.63;;;18.52;;
51090;SDS011;37136;43.614;3.908;2022-12-07T00:30:08;28.75;;;18.80;;
51090;SDS011;37136;43.614;3.908;2022-12-07T00:32:34;27.25;;;18.05;;
51090;SDS011;37136;43.614;3.908;2022-12-07T00:35:01;33.00;;;19.63;;
51090;SDS011;37136;43.614;3.908;2022-12-07T00:37:27;29.65;;;16.92;;
51090;SDS011;37136;43.614;3.908;2022-12-07T00:39:53;28.45;;;18.45;;
51090;SDS011;37136;43.614;3.908;2022-12-07T00:42:19;25.63;;;17.08;;
51090;SDS011;37136;43.614;3.908;2022-12-07T00:44:46;32.65;;;17.80;;
51090;SDS011;37136;43.614;3.908;2022-12-07T00:47:12;33.08;;;20.00;;
51090;SDS011;37136;43.614;3.908;2022-12-07T00:49:38;28.52;;;18.35;;
51090;SDS011;37136;43.614;3.908;2022-12-07T00:52:04;30.05;;;19.02;;
51090;SDS011;37136;43.614;3.908;2022-12-07T00:54:30;28.42;;;17.52;;
51090;SDS011;37136;43.614;3.908;2022-12-07T00:56:56;30.27;;;18.38;;
51090;SDS011;37136;43.614;3.908;2022-12-07T00:59:22;31.75;;;18.35;;
51090;SDS011;37136;43.614;3.908;2022-12-07T01:01:49;28.88;;;19.08;;
51090;SDS011;37136;43.614;3.908;2022-12-07T01:04:15;33.15;;;18.98;;
51090;SDS011;37136;43.614;3.908;2022-12-07T01:06:41;29.17;;;18.55;;
51090;SDS011;37136;43.614;3.908;2022-12-07T01:09:07;25.13;;;15.88;;
51090;SDS011;37136;43.614;3.908;2022-12-07T01:11:33;25.73;;;15.32;;
51090;SDS011;37136;43.614;3.908;2022-12-07T01:14:00;22.90;;;14.27;;
51090;SDS011;37136;43.614;3.908;2022-12-07T01:16:27;23.92;;;14.55;;
51090;SDS011;37136;43.614;3.908;2022-12-07T01:18:54;21.63;;;13.48;;
51090;SDS011;37136;43.614;3.908;2022-12-07T01:21:28;21.10;;;13.10;;
51090;SDS011;37136;43.614;3.908;2022-12-07T01:23:54;25.02;;;13.77;;
51090;SDS011;37136;43.614;3.908;2022-12-07T01:26:23;19.65;;;12.65;;
51090;SDS011;37136;43.614;3.908;2022-12-07T01:28:50;21.15;;;13.40;;
51090;SDS011;37136;43.614;3.908;2022-12-07T01:31:17;18.85;;;11.63;;
51090;SDS011;37136;43.614;3.908;2022-12-07T01:33:45;19.90;;;13.10;;
51090;SDS011;37136;43.614;3.908;2022-12-07T01:38:43;19.60;;;12.68;;
51090;SDS011;37136;43.614;3.908;2022-12-07T01:41:10;18.00;;;12.10;;
51090;SDS011;37136;43.614;3.908;2022-12-07T01:43:37;19.77;;;12.35;;
51090;SDS011;37136;43.614;3.908;2022-12-07T01:46:03;17.52;;;11.55;;
51090;SDS011;37136;43.614;3.908;2022-12-07T01:48:31;18.50;;;11.20;;
51090;SDS011;37136;43.614;3.908;2022-12-07T01:51:00;19.33;;;12.15;;
51090;SDS011;37136;43.614;3.908;2022-12-07T01:53:27;16.57;;;11.13;;
51090;SDS011;37136;43.614;3.908;2022-12-07T01:55:54;20.90;;;12.32;;
51090;SDS011;37136;43.614;3.908;2022-12-07T01:58:21;20.08;;;11.80;;
51090;SDS011;37136;43.614;3.908;2022-12-07T02:00:48;20.05;;;11.73;;
51090;SDS011;37136;43.614;3.908;2022-12-07T02:08:09;17.10;;;10.82;;
51090;SDS011;37136;43.614;3.908;2022-12-07T02:10:36;17.85;;;10.88;;
51090;SDS011;37136;43.614;3.908;2022-12-07T02:13:04;20.70;;;10.68;;
51090;SDS011;37136;43.614;3.908;2022-12-07T02:15:43;17.30;;;11.88;;
51090;SDS011;37136;43.614;3.908;2022-12-07T02:23:39;17.65;;;10.35;;
51090;SDS011;37136;43.614;3.908;2022-12-07T02:28:34;18.63;;;11.50;;
51090;SDS011;37136;43.614;3.908;2022-12-07T02:31:03;18.63;;;11.95;;
51090;SDS011;37136;43.614;3.908;2022-12-07T02:33:33;19.55;;;11.38;;
51090;SDS011;37136;43.614;3.908;2022-12-07T02:36:02;19.83;;;12.48;;
51090;SDS011;37136;43.614;3.908;2022-12-07T02:43:43;17.42;;;11.10;;
51090;SDS011;37136;43.614;3.908;2022-12-07T02:46:12;17.35;;;11.90;;
51090;SDS011;37136;43.614;3.908;2022-12-07T02:48:40;19.00;;;12.35;;
51090;SDS011;37136;43.614;3.908;2022-12-07T02:51:07;18.92;;;11.65;;
51090;SDS011;37136;43.614;3.908;2022-12-07T02:53:37;17.42;;;11.45;;
51090;SDS011;37136;43.614;3.908;2022-12-07T03:04:02;17.77;;;11.88;;
51090;SDS011;37136;43.614;3.908;2022-12-07T03:06:36;18.55;;;11.32;;
51090;SDS011;37136;43.614;3.908;2022-12-07T03:09:13;21.38;;;12.18;;
51090;SDS011;37136;43.614;3.908;2022-12-07T03:11:48;16.27;;;11.63;;
51090;SDS011;37136;43.614;3.908;2022-12-07T03:14:18;18.90;;;11.77;;
51090;SDS011;37136;43.614;3.908;2022-12-07T03:16:50;17.85;;;11.25;;
51090;SDS011;37136;43.614;3.908;2022-12-07T03:19:19;17.33;;;10.85;;
51090;SDS011;37136;43.614;3.908;2022-12-07T03:21:49;18.58;;;11.75;;
51090;SDS011;37136;43.614;3.908;2022-12-07T03:24:17;18.40;;;11.63;;
51090;SDS011;37136;43.614;3.908;2022-12-07T03:26:46;19.48;;;10.95;;
51090;SDS011;37136;43.614;3.908;2022-12-07T03:29:17;18.73;;;11.48;;
51090;SDS011;37136;43.614;3.908;2022-12-07T03:31:47;19.15;;;12.15;;
51090;SDS011;37136;43.614;3.908;2022-12-07T03:34:16;16.27;;;10.82;;
51090;SDS011;37136;43.614;3.908;2022-12-07T03:36:46;16.80;;;10.73;;
51090;SDS011;37136;43.614;3.908;2022-12-07T03:39:18;18.23;;;11.23;;
51090;SDS011;37136;43.614;3.908;2022-12-07T03:41:46;16.23;;;10.82;;
51090;SDS011;37136;43.614;3.908;2022-12-07T03:44:12;17.33;;;11.32;;
51090;SDS011;37136;43.614;3.908;2022-12-07T03:49:12;15.45;;;9.63;;
51090;SDS011;37136;43.614;3.908;2022-12-07T03:54:28;14.85;;;10.55;;
51090;SDS011;37136;43.614;3.908;2022-12-07T03:56:55;19.00;;;11.18;;
51090;SDS011;37136;43.614;3.908;2022-12-07T03:59:22;16.52;;;10.27;;
51090;SDS011;37136;43.614;3.908;2022-12-07T04:01:53;15.80;;;10.50;;
51090;SDS011;37136;43.614;3.908;2022-12-07T04:04:20;18.38;;;10.52;;
51090;SDS011;37136;43.614;3.908;2022-12-07T04:06:46;16.27;;;10.18;;
51090;SDS011;37136;43.614;3.908;2022-12-07T04:09:12;17.00;;;11.55;;
51090;SDS011;37136;43.614;3.908;2022-12-07T04:11:39;15.18;;;10.55;;
51090;SDS011;37136;43.614;3.908;2022-12-07T04:14:05;19.35;;;11.27;;
51090;SDS011;37136;43.614;3.908;2022-12-07T04:16:44;17.20;;;11.43;;
51090;SDS011;37136;43.614;3.908;2022-12-07T04:19:11;15.93;;;10.57;;
51090;SDS011;37136;43.614;3.908;2022-12-07T04:21:37;19.85;;;11.32;;
51090;SDS011;37136;43.614;3.908;2022-12-07T04:24:04;17.33;;;10.35;;
51090;SDS011;37136;43.614;3.908;2022-12-07T04:26:30;17.60;;;10.38;;
51090;SDS011;37136;43.614;3.908;2022-12-07T04:28:56;17.80;;;11.30;;
51090;SDS011;37136;43.614;3.908;2022-12-07T04:31:22;16.55;;;10.65;;
51090;SDS011;37136;43.614;3.908;2022-12-07T04:33:49;15.82;;;10.48;;
51090;SDS011;37136;43.614;3.908;2022-12-07T04:36:15;15.35;;;10.43;;
51090;SDS011;37136;43.614;3.908;2022-12-07T04:38:41;15.77;;;10.00;;
51090;SDS011;37136;43.614;3.908;2022-12-07T04:41:08;14.73;;;10.43;;
51090;SDS011;37136;43.614;3.908;2022-12-07T04:43:34;15.75;;;10.05;;
51090;SDS011;37136;43.614;3.908;2022-12-07T04:46:01;17.85;;;11.48;;
51090;SDS011;37136;43.614;3.908;2022-12-07T04:48:28;16.15;;;10.75;;
51090;SDS011;37136;43.614;3.908;2022-12-07T04:50:54;14.90;;;10.50;;
51090;SDS011;37136;43.614;3.908;2022-12-07T04:53:20;18.48;;;11.65;;
51090;SDS011;37136;43.614;3.908;2022-12-07T04:55:46;16.27;;;10.93;;
51090;SDS011;37136;43.614;3.908;2022-12-07T04:58:13;16.65;;;10.95;;
51090;SDS011;37136;43.614;3.908;2022-12-07T05:00:40;17.95;;;10.88;;
51090;SDS011;37136;43.614;3.908;2022-12-07T05:03:06;16.70;;;10.50;;
51090;SDS011;37136;43.614;3.908;2022-12-07T05:05:32;17.40;;;11.13;;
51090;SDS011;37136;43.614;3.908;2022-12-07T05:07:59;19.08;;;11.75;;
51090;SDS011;37136;43.614;3.908;2022-12-07T05:10:25;19.27;;;12.10;;
51090;SDS011;37136;43.614;3.908;2022-12-07T05:12:51;16.30;;;10.63;;
51090;SDS011;37136;43.614;3.908;2022-12-07T05:15:17;17.08;;;11.77;;
51090;SDS011;37136;43.614;3.908;2022-12-07T05:17:43;17.23;;;10.90;;
51090;SDS011;37136;43.614;3.908;2022-12-07T05:20:10;15.02;;;10.18;;
51090;SDS011;37136;43.614;3.908;2022-12-07T05:22:36;16.85;;;11.07;;
51090;SDS011;37136;43.614;3.908;2022-12-07T05:25:03;16.33;;;11.40;;
51090;SDS011;37136;43.614;3.908;2022-12-07T05:27:29;16.15;;;11.10;;
51090;SDS011;37136;43.614;3.908;2022-12-07T05:29:55;17.70;;;12.00;;
51090;SDS011;37136;43.614;3.908;2022-12-07T05:32:22;20.92;;;11.50;;
51090;SDS011;37136;43.614;3.908;2022-12-07T05:34:48;16.83;;;10.82;;
51090;SDS011;37136;43.614;3.908;2022-12-07T05:37:14;21.00;;;10.68;;
51090;SDS011;37136;43.614;3.908;2022-12-07T05:39:44;16.92;;;10.75;;
51090;SDS011;37136;43.614;3.908;2022-12-07T05:42:18;17.42;;;11.13;;
51090;SDS011;37136;43.614;3.908;2022-12-07T05:44:47;18.63;;;11.55;;
51090;SDS011;37136;43.614;3.908;2022-12-07T05:47:14;17.83;;;11.98;;
51090;SDS011;37136;43.614;3.908;2022-12-07T05:49:40;16.75;;;11.18;;
51090;SDS011;37136;43.614;3.908;2022-12-07T05:52:06;18.55;;;11.32;;
51090;SDS011;37136;43.614;3.908;2022-12-07T05:54:33;18.30;;;11.35;;
51090;SDS011;37136;43.614;3.908;2022-12-07T05:56:59;16.55;;;11.48;;
51090;SDS011;37136;43.614;3.908;2022-12-07T05:59:26;17.17;;;10.48;;
51090;SDS011;37136;43.614;3.908;2022-12-07T06:04:22;17.73;;;10.38;;
51090;SDS011;37136;43.614;3.908;2022-12-07T06:06:49;18.35;;;10.82;;
51090;SDS011;37136;43.614;3.908;2022-12-07T06:09:15;14.77;;;10.45;;
51090;SDS011;37136;43.614;3.908;2022-12-07T06:11:43;16.88;;;10.30;;
51090;SDS011;37136;43.614;3.908;2022-12-07T06:14:27;18.98;;;10.95;;
51090;SDS011;37136;43.614;3.908;2022-12-07T06:16:54;25.50;;;11.52;;
51090;SDS011;37136;43.614;3.908;2022-12-07T06:19:20;18.05;;;10.73;;
51090;SDS011;37136;43.614;3.908;2022-12-07T06:21:46;18.85;;;11.32;;
51090;SDS011;37136;43.614;3.908;2022-12-07T06:24:13;17.85;;;10.90;;
51090;SDS011;37136;43.614;3.908;2022-12-07T06:26:40;17.83;;;11.55;;
51090;SDS011;37136;43.614;3.908;2022-12-07T06:29:06;20.95;;;10.98;;
51090;SDS011;37136;43.614;3.908;2022-12-07T06:31:32;18.40;;;10.07;;
51090;SDS011;37136;43.614;3.908;2022-12-07T06:33:59;15.65;;;9.50;;
51090;SDS011;37136;43.614;3.908;2022-12-07T06:36:26;21.75;;;11.07;;
51090;SDS011;37136;43.614;3.908;2022-12-07T06:38:55;18.10;;;10.30;;
51090;SDS011;37136;43.614;3.908;2022-12-07T06:41:22;15.40;;;9.90;;
51090;SDS011;37136;43.614;3.908;2022-12-07T06:43:48;15.70;;;9.60;;
51090;SDS011;37136;43.614;3.908;2022-12-07T06:46:15;17.02;;;10.18;;
51090;SDS011;37136;43.614;3.908;2022-12-07T06:48:41;16.88;;;10.10;;
51090;SDS011;37136;43.614;3.908;2022-12-07T06:51:08;15.73;;;10.63;;
51090;SDS011;37136;43.614;3.908;2022-12-07T06:53:35;19.27;;;11.02;;
51090;SDS011;37136;43.614;3.908;2022-12-07T06:56:02;19.27;;;10.93;;
51090;SDS011;37136;43.614;3.908;2022-12-07T06:58:28;14.02;;;9.35;;
51090;SDS011;37136;43.614;3.908;2022-12-07T07:00:54;17.67;;;10.57;;
51090;SDS011;37136;43.614;3.908;2022-12-07T07:03:20;15.57;;;10.15;;
51090;SDS011;37136;43.614;3.908;2022-12-07T07:05:46;16.05;;;10.65;;
51090;SDS011;37136;43.614;3.908;2022-12-07T07:08:16;15.38;;;9.77;;
51090;SDS011;37136;43.614;3.908;2022-12-07T07:10:42;17.58;;;10.45;;
51090;SDS011;37136;43.614;3.908;2022-12-07T07:13:09;16.23;;;10.50;;
51090;SDS011;37136;43.614;3.908;2022-12-07T07:15:36;13.27;;;9.27;;
51090;SDS011;37136;43.614;3.908;2022-12-07T07:18:03;20.92;;;9.40;;
51090;SDS011;37136;43.614;3.908;2022-12-07T07:20:29;16.50;;;10.68;;
51090;SDS011;37136;43.614;3.908;2022-12-07T07:22:55;19.02;;;10.73;;
51090;SDS011;37136;43.614;3.908;2022-12-07T07:25:22;13.95;;;9.80;;
51090;SDS011;37136;43.614;3.908;2022-12-07T07:27:48;15.85;;;10.25;;
51090;SDS011;37136;43.614;3.908;2022-12-07T07:30:14;19.30;;;10.68;;
51090;SDS011;37136;43.614;3.908;2022-12-07T07:32:40;16.15;;;9.77;;
51090;SDS011;37136;43.614;3.908;2022-12-07T07:35:07;17.98;;;9.98;;
51090;SDS011;37136;43.614;3.908;2022-12-07T07:37:33;15.82;;;9.23;;
51090;SDS011;37136;43.614;3.908;2022-12-07T07:39:59;15.82;;;10.10;;
51090;SDS011;37136;43.614;3.908;2022-12-07T07:42:26;20.55;;;10.30;;
51090;SDS011;37136;43.614;3.908;2022-12-07T07:44:52;13.45;;;8.93;;
51090;SDS011;37136;43.614;3.908;2022-12-07T07:47:18;15.35;;;9.23;;
51090;SDS011;37136;43.614;3.908;2022-12-07T07:49:44;14.95;;;9.57;;
51090;SDS011;37136;43.614;3.908;2022-12-07T07:52:11;14.02;;;9.02;;
51090;SDS011;37136;43.614;3.908;2022-12-07T07:54:37;13.20;;;8.60;;
51090;SDS011;37136;43.614;3.908;2022-12-07T07:57:03;14.45;;;8.55;;
51090;SDS011;37136;43.614;3.908;2022-12-07T07:59:29;13.70;;;8.48;;
51090;SDS011;37136;43.614;3.908;2022-12-07T08:01:56;12.40;;;8.15;;
51090;SDS011;37136;43.614;3.908;2022-12-07T08:04:22;15.05;;;9.35;;
51090;SDS011;37136;43.614;3.908;2022-12-07T08:06:48;12.32;;;8.68;;
51090;SDS011;37136;43.614;3.908;2022-12-07T08:09:14;13.20;;;8.75;;
51090;SDS011;37136;43.614;3.908;2022-12-07T08:11:40;12.18;;;8.40;;
51090;SDS011;37136;43.614;3.908;2022-12-07T08:14:07;15.27;;;8.38;;
51090;SDS011;37136;43.614;3.908;2022-12-07T08:16:33;18.35;;;9.52;;
51090;SDS011;37136;43.614;3.908;2022-12-07T08:18:59;14.75;;;9.65;;
51090;SDS011;37136;43.614;3.908;2022-12-07T08:21:25;13.38;;;8.68;;
51090;SDS011;37136;43.614;3.908;2022-12-07T08:23:52;15.05;;;8.38;;
51090;SDS011;37136;43.614;3.908;2022-12-07T08:26:18;14.35;;;8.52;;
51090;SDS011;37136;43.614;3.908;2022-12-07T08:28:44;16.33;;;8.63;;
51090;SDS011;37136;43.614;3.908;2022-12-07T08:31:12;11.98;;;8.00;;
51090;SDS011;37136;43.614;3.908;2022-12-07T08:33:38;12.73;;;8.00;;
51090;SDS011;37136;43.614;3.908;2022-12-07T08:36:05;14.55;;;8.23;;
51090;SDS011;37136;43.614;3.908;2022-12-07T08:38:33;15.38;;;7.65;;
51090;SDS011;37136;43.614;3.908;2022-12-07T08:41:00;12.88;;;8.98;;
51090;SDS011;37136;43.614;3.908;2022-12-07T08:43:26;12.82;;;7.85;;
51090;SDS011;37136;43.614;3.908;2022-12-07T08:48:44;16.20;;;8.75;;
51090;SDS011;37136;43.614;3.908;2022-12-07T08:53:37;15.15;;;8.68;;
51090;SDS011;37136;43.614;3.908;2022-12-07T08:56:04;12.82;;;7.90;;
51090;SDS011;37136;43.614;3.908;2022-12-07T08:58:31;12.27;;;7.82;;
51090;SDS011;37136;43.614;3.908;2022-12-07T09:00:57;11.43;;;7.32;;
51090;SDS011;37136;43.614;3.908;2022-12-07T09:03:23;18.48;;;7.40;;
51090;SDS011;37136;43.614;3.908;2022-12-07T09:05:50;10.63;;;6.90;;
51090;SDS011;37136;43.614;3.908;2022-12-07T09:08:16;11.88;;;6.47;;
51090;SDS011;37136;43.614;3.908;2022-12-07T09:10:42;10.55;;;7.15;;
51090;SDS011;37136;43.614;3.908;2022-12-07T09:13:08;11.55;;;7.40;;
51090;SDS011;37136;43.614;3.908;2022-12-07T09:15:34;10.02;;;6.85;;
51090;SDS011;37136;43.614;3.908;2022-12-07T09:18:01;11.60;;;7.30;;
51090;SDS011;37136;43.614;3.908;2022-12-07T09:20:27;10.70;;;7.00;;
51090;SDS011;37136;43.614;3.908;2022-12-07T09:22:53;10.80;;;6.72;;
51090;SDS011;37136;43.614;3.908;2022-12-07T09:25:19;12.07;;;6.93;;
51090;SDS011;37136;43.614;3.908;2022-12-07T09:27:45;12.35;;;7.28;;
51090;SDS011;37136;43.614;3.908;2022-12-07T09:30:12;11.68;;;6.45;;
51090;SDS011;37136;43.614;3.908;2022-12-07T09:32:38;9.55;;;6.15;;
51090;SDS011;37136;43.614;3.908;2022-12-07T09:35:04;13.20;;;7.18;;
51090;SDS011;37136;43.614;3.908;2022-12-07T09:37:30;9.93;;;6.25;;
51090;SDS011;37136;43.614;3.908;2022-12-07T09:40:00;10.35;;;6.65;;
51090;SDS011;37136;43.614;3.908;2022-12-07T09:42:34;9.25;;;6.28;;
51090;SDS011;37136;43.614;3.908;2022-12-07T09:45:01;10.00;;;6.13;;
51090;SDS011;37136;43.614;3.908;2022-12-07T09:47:28;8.63;;;6.32;;
51090;SDS011;37136;43.614;3.908;2022-12-07T09:49:55;9.38;;;6.72;;
51090;SDS011;37136;43.614;3.908;2022-12-07T09:52:27;13.57;;;7.68;;
51090;SDS011;37136;43.614;3.908;2022-12-07T09:54:53;10.13;;;6.88;;
51090;SDS011;37136;43.614;3.908;2022-12-07T09:57:21;7.72;;;5.97;;
51090;SDS011;37136;43.614;3.908;2022-12-07T09:59:51;13.43;;;6.40;;
51090;SDS011;37136;43.614;3.908;2022-12-07T10:02:22;9.68;;;6.43;;
51090;SDS011;37136;43.614;3.908;2022-12-07T10:04:49;7.88;;;5.97;;
51090;SDS011;37136;43.614;3.908;2022-12-07T10:07:15;10.65;;;6.13;;
51090;SDS011;37136;43.614;3.908;2022-12-07T10:09:41;8.88;;;5.30;;
51090;SDS011;37136;43.614;3.908;2022-12-07T10:12:09;11.77;;;5.90;;
51090;SDS011;37136;43.614;3.908;2022-12-07T10:14:40;13.87;;;6.63;;
51090;SDS011;37136;43.614;3.908;2022-12-07T10:20:24;7.07;;;5.25;;
51090;SDS011;37136;43.614;3.908;2022-12-07T10:22:56;9.07;;;5.93;;
51090;SDS011;37136;43.614;3.908;2022-12-07T10:25:24;7.90;;;5.43;;
51090;SDS011;37136;43.614;3.908;2022-12-07T10:28:10;9.57;;;5.22;;
51090;SDS011;37136;43.614;3.908;2022-12-07T10:33:37;11.10;;;5.18;;
51090;SDS011;37136;43.614;3.908;2022-12-07T10:36:15;8.82;;;4.45;;
51090;SDS011;37136;43.614;3.908;2022-12-07T10:38:52;8.77;;;4.65;;
51090;SDS011;37136;43.614;3.908;2022-12-07T10:41:19;9.48;;;4.88;;
51090;SDS011;37136;43.614;3.908;2022-12-07T10:43:46;8.07;;;4.68;;
51090;SDS011;37136;43.614;3.908;2022-12-07T10:48:46;8.07;;;5.03;;
51090;SDS011;37136;43.614;3.908;2022-12-07T10:51:18;7.03;;;4.70;;
51090;SDS011;37136;43.614;3.908;2022-12-07T10:56:45;4.88;;;3.55;;
51090;SDS011;37136;43.614;3.908;2022-12-07T11:06:42;6.47;;;4.72;;
51090;SDS011;37136;43.614;3.908;2022-12-07T11:14:22;5.25;;;4.05;;
51090;SDS011;37136;43.614;3.908;2022-12-07T11:16:59;9.68;;;3.42;;
51090;SDS011;37136;43.614;3.908;2022-12-07T11:22:02;5.55;;;4.13;;
51090;SDS011;37136;43.614;3.908;2022-12-07T11:39:55;4.68;;;3.17;;
51090;SDS011;37136;43.614;3.908;2022-12-07T11:42:26;7.45;;;3.53;;
51090;SDS011;37136;43.614;3.908;2022-12-07T11:45:00;4.72;;;3.22;;
51090;SDS011;37136;43.614;3.908;2022-12-07T11:49:54;5.43;;;3.45;;
51090;SDS011;37136;43.614;3.908;2022-12-07T11:55:05;3.83;;;2.83;;
51090;SDS011;37136;43.614;3.908;2022-12-07T11:57:42;4.20;;;3.00;;
51090;SDS011;37136;43.614;3.908;2022-12-07T12:00:16;4.55;;;3.17;;
51090;SDS011;37136;43.614;3.908;2022-12-07T12:05:16;5.72;;;2.97;;
51090;SDS011;37136;43.614;3.908;2022-12-07T12:07:43;4.72;;;3.35;;
51090;SDS011;37136;43.614;3.908;2022-12-07T12:13:06;4.38;;;2.55;;
51090;SDS011;37136;43.614;3.908;2022-12-07T12:21:09;3.28;;;2.53;;
51090;SDS011;37136;43.614;3.908;2022-12-07T12:23:38;4.97;;;3.00;;
51090;SDS011;37136;43.614;3.908;2022-12-07T12:26:14;3.92;;;2.97;;
51090;SDS011;37136;43.614;3.908;2022-12-07T12:31:14;4.65;;;3.00;;
51090;SDS011;37136;43.614;3.908;2022-12-07T12:33:46;3.53;;;2.90;;
51090;SDS011;37136;43.614;3.908;2022-12-07T12:41:08;3.90;;;2.65;;
51090;SDS011;37136;43.614;3.908;2022-12-07T12:43:53;5.18;;;3.05;;
51090;SDS011;37136;43.614;3.908;2022-12-07T12:46:38;3.30;;;2.22;;
51090;SDS011;37136;43.614;3.908;2022-12-07T12:54:26;3.55;;;2.47;;
51090;SDS011;37136;43.614;3.908;2022-12-07T12:57:09;4.53;;;2.90;;
51090;SDS011;37136;43.614;3.908;2022-12-07T13:15:48;3.70;;;2.97;;
51090;SDS011;37136;43.614;3.908;2022-12-07T13:20:53;4.13;;;2.67;;
51090;SDS011;37136;43.614;3.908;2022-12-07T13:28:38;4.10;;;2.65;;
51090;SDS011;37136;43.614;3.908;2022-12-07T13:33:38;2.80;;;2.35;;
51090;SDS011;37136;43.614;3.908;2022-12-07T13:36:04;2.95;;;2.63;;
51090;SDS011;37136;43.614;3.908;2022-12-07T13:38:34;6.45;;;2.70;;
51090;SDS011;37136;43.614;3.908;2022-12-07T13:41:11;4.07;;;2.97;;
51090;SDS011;37136;43.614;3.908;2022-12-07T13:43:42;4.93;;;2.50;;
51090;SDS011;37136;43.614;3.908;2022-12-07T13:46:09;7.75;;;3.25;;
51090;SDS011;37136;43.614;3.908;2022-12-07T13:48:46;2.92;;;2.40;;
51090;SDS011;37136;43.614;3.908;2022-12-07T13:51:25;7.40;;;2.42;;
51090;SDS011;37136;43.614;3.908;2022-12-07T13:53:55;3.08;;;2.53;;
51090;SDS011;37136;43.614;3.908;2022-12-07T13:56:33;3.63;;;2.65;;
51090;SDS011;37136;43.614;3.908;2022-12-07T13:59:00;5.75;;;3.05;;
51090;SDS011;37136;43.614;3.908;2022-12-07T14:01:26;4.25;;;2.80;;
51090;SDS011;37136;43.614;3.908;2022-12-07T14:03:53;3.35;;;2.67;;
51090;SDS011;37136;43.614;3.908;2022-12-07T14:06:20;6.05;;;2.70;;
51090;SDS011;37136;43.614;3.908;2022-12-07T14:08:50;4.05;;;2.58;;
51090;SDS011;37136;43.614;3.908;2022-12-07T14:11:19;4.10;;;2.72;;
51090;SDS011;37136;43.614;3.908;2022-12-07T14:18:41;6.63;;;3.00;;
51090;SDS011;37136;43.614;3.908;2022-12-07T14:23:37;6.10;;;3.13;;
51090;SDS011;37136;43.614;3.908;2022-12-07T14:26:07;4.63;;;3.13;;
51090;SDS011;37136;43.614;3.908;2022-12-07T14:28:35;5.03;;;2.65;;
51090;SDS011;37136;43.614;3.908;2022-12-07T14:31:01;4.57;;;3.22;;
51090;SDS011;37136;43.614;3.908;2022-12-07T14:33:28;3.83;;;2.70;;
51090;SDS011;37136;43.614;3.908;2022-12-07T14:35:54;3.92;;;2.53;;
51090;SDS011;37136;43.614;3.908;2022-12-07T14:38:22;7.72;;;3.40;;
51090;SDS011;37136;43.614;3.908;2022-12-07T14:40:49;3.88;;;2.92;;
51090;SDS011;37136;43.614;3.908;2022-12-07T14:43:16;6.18;;;3.15;;
51090;SDS011;37136;43.614;3.908;2022-12-07T14:45:42;5.03;;;3.17;;
51090;SDS011;37136;43.614;3.908;2022-12-07T14:48:12;5.35;;;2.70;;
51090;SDS011;37136;43.614;3.908;2022-12-07T14:50:40;6.57;;;3.03;;
51090;SDS011;37136;43.614;3.908;2022-12-07T14:53:12;4.95;;;2.80;;
51090;SDS011;37136;43.614;3.908;2022-12-07T14:55:39;5.63;;;2.92;;
51090;SDS011;37136;43.614;3.908;2022-12-07T14:58:05;4.50;;;3.65;;
51090;SDS011;37136;43.614;3.908;2022-12-07T15:00:31;5.75;;;2.70;;
51090;SDS011;37136;43.614;3.908;2022-12-07T15:02:59;5.20;;;3.67;;
51090;SDS011;37136;43.614;3.908;2022-12-07T15:05:25;7.90;;;3.67;;
51090;SDS011;37136;43.614;3.908;2022-12-07T15:07:51;6.40;;;2.90;;
51090;SDS011;37136;43.614;3.908;2022-12-07T15:10:19;4.78;;;2.63;;
51090;SDS011;37136;43.614;3.908;2022-12-07T15:12:45;6.85;;;2.75;;
51090;SDS011;37136;43.614;3.908;2022-12-07T15:15:12;6.22;;;3.00;;
51090;SDS011;37136;43.614;3.908;2022-12-07T15:17:39;13.02;;;4.90;;
51090;SDS011;37136;43.614;3.908;2022-12-07T15:20:07;7.18;;;3.38;;
51090;SDS011;37136;43.614;3.908;2022-12-07T15:22:33;6.97;;;3.40;;
51090;SDS011;37136;43.614;3.908;2022-12-07T15:25:00;3.90;;;2.90;;
51090;SDS011;37136;43.614;3.908;2022-12-07T15:27:26;5.72;;;3.22;;
51090;SDS011;37136;43.614;3.908;2022-12-07T15:29:52;4.88;;;3.00;;
51090;SDS011;37136;43.614;3.908;2022-12-07T15:32:19;7.28;;;2.90;;
51090;SDS011;37136;43.614;3.908;2022-12-07T15:34:45;5.32;;;3.03;;
51090;SDS011;37136;43.614;3.908;2022-12-07T15:37:11;5.13;;;3.25;;
51090;SDS011;37136;43.614;3.908;2022-12-07T15:39:37;4.45;;;3.03;;
51090;SDS011;37136;43.614;3.908;2022-12-07T15:42:03;4.00;;;2.80;;
51090;SDS011;37136;43.614;3.908;2022-12-07T15:44:29;4.95;;;3.28;;
51090;SDS011;37136;43.614;3.908;2022-12-07T15:47:14;10.38;;;3.10;;
51090;SDS011;37136;43.614;3.908;2022-12-07T15:49:40;5.65;;;3.60;;
51090;SDS011;37136;43.614;3.908;2022-12-07T15:52:06;5.05;;;3.33;;
51090;SDS011;37136;43.614;3.908;2022-12-07T15:54:32;3.60;;;2.90;;
51090;SDS011;37136;43.614;3.908;2022-12-07T15:56:58;3.97;;;2.83;;
51090;SDS011;37136;43.614;3.908;2022-12-07T15:59:25;4.60;;;2.78;;
51090;SDS011;37136;43.614;3.908;2022-12-07T16:01:51;3.85;;;2.95;;
51090;SDS011;37136;43.614;3.908;2022-12-07T16:04:18;5.57;;;2.95;;
51090;SDS011;37136;43.614;3.908;2022-12-07T16:06:44;4.72;;;3.38;;
51090;SDS011;37136;43.614;3.908;2022-12-07T16:09:10;5.35;;;3.60;;
51090;SDS011;37136;43.614;3.908;2022-12-07T16:11:36;4.32;;;2.97;;
51090;SDS011;37136;43.614;3.908;2022-12-07T16:14:02;4.93;;;3.10;;
51090;SDS011;37136;43.614;3.908;2022-12-07T16:16:28;4.47;;;2.90;;
51090;SDS011;37136;43.614;3.908;2022-12-07T16:18:55;4.30;;;3.10;;
51090;SDS011;37136;43.614;3.908;2022-12-07T16:21:21;6.22;;;2.90;;
51090;SDS011;37136;43.614;3.908;2022-12-07T16:23:47;7.32;;;3.08;;
51090;SDS011;37136;43.614;3.908;2022-12-07T16:26:15;9.05;;;3.55;;
51090;SDS011;37136;43.614;3.908;2022-12-07T16:28:41;5.43;;;3.25;;
51090;SDS011;37136;43.614;3.908;2022-12-07T16:31:08;5.15;;;3.05;;
51090;SDS011;37136;43.614;3.908;2022-12-07T16:33:36;4.50;;;2.97;;
51090;SDS011;37136;43.614;3.908;2022-12-07T16:36:03;6.38;;;3.67;;
51090;SDS011;37136;43.614;3.908;2022-12-07T16:38:29;6.15;;;3.55;;
51090;SDS011;37136;43.614;3.908;2022-12-07T16:40:55;12.93;;;4.20;;
51090;SDS011;37136;43.614;3.908;2022-12-07T16:43:22;7.55;;;3.90;;
51090;SDS011;37136;43.614;3.908;2022-12-07T16:45:49;6.93;;;4.10;;
51090;SDS011;37136;43.614;3.908;2022-12-07T16:48:15;7.30;;;4.45;;
51090;SDS011;37136;43.614;3.908;2022-12-07T16:50:43;7.60;;;4.78;;
51090;SDS011;37136;43.614;3.908;2022-12-07T16:53:09;5.30;;;3.50;;
51090;SDS011;37136;43.614;3.908;2022-12-07T16:55:42;6.47;;;3.90;;
51090;SDS011;37136;43.614;3.908;2022-12-07T16:58:09;9.40;;;4.03;;
51090;SDS011;37136;43.614;3.908;2022-12-07T17:00:36;10.02;;;4.53;;
51090;SDS011;37136;43.614;3.908;2022-12-07T17:03:03;8.65;;;4.35;;